BAW211 LIMJ-LFSB
Flight info
| Callsign | BAW211 |
|---|---|
| Flight time | 0h 54m |
| Altitude | 18000 |
| Route | LAGEN Q712 VOG M858 SRN/N0399F190 L615 DESIP/N0457F380 DCT ABESI N851 UTAVO DCT ELMUR T718 TRA/N0458F370 Z69 OLBEN T10 LUMEL |
| Aircraft | A319/M-SDE2E3FGHIJ1RWXY/SB1 |
Departure
| Time | 2026-05-08 18:23 |
|---|---|
| Airport | Genoa Cristoforo Colombo Airport (LIMJ) |
Arrival
| Time | 2026-05-08 19:17 |
|---|---|
| Airport | EuroAirport Basel–Mulhouse–Freiburg (LFSB) |
| Time | Latitude | Longitude | Altitude | Speed | Heading |
|---|---|---|---|---|---|
| 2026-05-08 18:09 | 44.41492 | 8.84917 | 10 ft | 0 kts | 104° |
| 2026-05-08 18:15 | 44.41492 | 8.84915 | 10 ft | 2 kts | 104° |
| 2026-05-08 18:15 | 44.41499 | 8.84880 | 10 ft | 4 kts | 105° |
| 2026-05-08 18:15 | 44.41507 | 8.84844 | 11 ft | 4 kts | 112° |
| 2026-05-08 18:16 | 44.41519 | 8.84812 | 11 ft | 4 kts | 137° |
| 2026-05-08 18:16 | 44.41534 | 8.84800 | 13 ft | 3 kts | 221° |
| 2026-05-08 18:16 | 44.41540 | 8.84808 | 13 ft | 0 kts | 229° |
| 2026-05-08 18:19 | 44.41537 | 8.84803 | 13 ft | 3 kts | 229° |
| 2026-05-08 18:19 | 44.41509 | 8.84757 | 10 ft | 9 kts | 231° |
| 2026-05-08 18:19 | 44.41463 | 8.84673 | 10 ft | 12 kts | 230° |
| 2026-05-08 18:20 | 44.41400 | 8.84709 | 10 ft | 15 kts | 108° |
| 2026-05-08 18:20 | 44.41371 | 8.84861 | 10 ft | 17 kts | 104° |
| 2026-05-08 18:20 | 44.41337 | 8.85049 | 10 ft | 22 kts | 104° |
| 2026-05-08 18:20 | 44.41297 | 8.85241 | 12 ft | 20 kts | 120° |
| 2026-05-08 18:21 | 44.41201 | 8.85274 | 10 ft | 15 kts | 197° |
| 2026-05-08 18:21 | 44.41086 | 8.85231 | 9 ft | 20 kts | 192° |
| 2026-05-08 18:21 | 44.41005 | 8.85208 | 7 ft | 7 kts | 115° |
| 2026-05-08 18:21 | 44.40973 | 8.85324 | 8 ft | 16 kts | 106° |
| 2026-05-08 18:22 | 44.40937 | 8.85497 | 10 ft | 21 kts | 106° |
| 2026-05-08 18:22 | 44.40897 | 8.85712 | 11 ft | 25 kts | 105° |
| 2026-05-08 18:22 | 44.40855 | 8.85953 | 11 ft | 20 kts | 88° |
| 2026-05-08 18:22 | 44.40847 | 8.86069 | 10 ft | 14 kts | 185° |
| 2026-05-08 18:23 | 44.40850 | 8.85949 | 14 ft | 10 kts | 284° |
| 2026-05-08 18:23 | 44.40858 | 8.85909 | 11 ft | 24 kts | 285° |
| 2026-05-08 18:23 | 44.41000 | 8.85193 | 7 ft | 130 kts | 285° |
| 2026-05-08 18:23 | 44.41273 | 8.83801 | 628 ft | 153 kts | 287° |
| 2026-05-08 18:24 | 44.41439 | 8.82289 | 1540 ft | 167 kts | 267° |
| 2026-05-08 18:24 | 44.41007 | 8.80669 | 2056 ft | 196 kts | 234° |
| 2026-05-08 18:24 | 44.39795 | 8.79729 | 2904 ft | 207 kts | 187° |
| 2026-05-08 18:24 | 44.38392 | 8.80050 | 4069 ft | 207 kts | 154° |
| 2026-05-08 18:25 | 44.37139 | 8.80957 | 5285 ft | 204 kts | 152° |
| 2026-05-08 18:25 | 44.35823 | 8.81718 | 6419 ft | 207 kts | 169° |
| 2026-05-08 18:25 | 44.34381 | 8.81767 | 7519 ft | 208 kts | 183° |
| 2026-05-08 18:25 | 44.32925 | 8.81673 | 8627 ft | 211 kts | 183° |
| 2026-05-08 18:26 | 44.31443 | 8.81575 | 9746 ft | 214 kts | 184° |
| 2026-05-08 18:26 | 44.29940 | 8.81472 | 10779 ft | 218 kts | 184° |
| 2026-05-08 18:26 | 44.28412 | 8.81364 | 11812 ft | 223 kts | 184° |
| 2026-05-08 18:26 | 44.26845 | 8.81254 | 12812 ft | 228 kts | 184° |
| 2026-05-08 18:27 | 44.25267 | 8.81144 | 13820 ft | 233 kts | 184° |
| 2026-05-08 18:27 | 44.24164 | 8.81068 | 14433 ft | 236 kts | 184° |
| 2026-05-08 18:27 | 44.21962 | 8.80924 | 15692 ft | 241 kts | 184° |
| 2026-05-08 18:27 | 44.20266 | 8.80813 | 16656 ft | 245 kts | 184° |
| 2026-05-08 18:28 | 44.18544 | 8.80698 | 17579 ft | 252 kts | 184° |
| 2026-05-08 18:28 | 44.16782 | 8.80579 | 17927 ft | 254 kts | 185° |
| 2026-05-08 18:28 | 44.15106 | 8.79958 | 18026 ft | 249 kts | 214° |
| 2026-05-08 18:28 | 44.13949 | 8.78253 | 18046 ft | 255 kts | 245° |
| 2026-05-08 18:29 | 44.13586 | 8.75713 | 18053 ft | 282 kts | 272° |
| 2026-05-08 18:29 | 44.13660 | 8.72933 | 18040 ft | 291 kts | 274° |
| 2026-05-08 18:29 | 44.13949 | 8.70147 | 18045 ft | 292 kts | 287° |
| 2026-05-08 18:29 | 44.14803 | 8.67580 | 18043 ft | 294 kts | 302° |
| 2026-05-08 18:30 | 44.16190 | 8.65367 | 18046 ft | 321 kts | 319° |
| 2026-05-08 18:30 | 44.18202 | 8.63683 | 18046 ft | 354 kts | 333° |
| 2026-05-08 18:30 | 44.20520 | 8.62142 | 18044 ft | 383 kts | 334° |
| 2026-05-08 18:30 | 44.23023 | 8.60514 | 18052 ft | 409 kts | 334° |
| 2026-05-08 18:31 | 44.25674 | 8.58802 | 18049 ft | 428 kts | 334° |
| 2026-05-08 18:31 | 44.28398 | 8.57040 | 18049 ft | 433 kts | 334° |
| 2026-05-08 18:31 | 44.31134 | 8.55264 | 18043 ft | 435 kts | 334° |
| 2026-05-08 18:31 | 44.33955 | 8.53710 | 18040 ft | 437 kts | 342° |
| 2026-05-08 18:32 | 44.36921 | 8.52755 | 18043 ft | 438 kts | 349° |
| 2026-05-08 18:32 | 44.39961 | 8.52367 | 18039 ft | 440 kts | 359° |
| 2026-05-08 18:32 | 44.42949 | 8.52984 | 18040 ft | 442 kts | 16° |
| 2026-05-08 18:32 | 44.45736 | 8.54821 | 18044 ft | 444 kts | 30° |
| 2026-05-08 18:33 | 44.48395 | 8.57042 | 18042 ft | 444 kts | 30° |
| 2026-05-08 18:33 | 44.51037 | 8.59289 | 18041 ft | 444 kts | 30° |
| 2026-05-08 18:33 | 44.53690 | 8.61541 | 18042 ft | 444 kts | 30° |
| 2026-05-08 18:33 | 44.56340 | 8.63771 | 18042 ft | 444 kts | 30° |
| 2026-05-08 18:34 | 44.58993 | 8.65983 | 18043 ft | 444 kts | 30° |
| 2026-05-08 18:34 | 44.61623 | 8.68155 | 18046 ft | 444 kts | 29° |
| 2026-05-08 18:34 | 44.64288 | 8.70339 | 18047 ft | 444 kts | 29° |
| 2026-05-08 18:34 | 44.66959 | 8.72523 | 18048 ft | 444 kts | 29° |
| 2026-05-08 18:35 | 44.69621 | 8.74702 | 18055 ft | 443 kts | 29° |
| 2026-05-08 18:35 | 44.72283 | 8.76890 | 18056 ft | 442 kts | 30° |
| 2026-05-08 18:35 | 44.74938 | 8.79083 | 18061 ft | 442 kts | 30° |
| 2026-05-08 18:35 | 44.77594 | 8.81284 | 18062 ft | 442 kts | 30° |
| 2026-05-08 18:36 | 44.80246 | 8.83487 | 18060 ft | 442 kts | 30° |
| 2026-05-08 18:36 | 44.82863 | 8.85664 | 18059 ft | 442 kts | 30° |
| 2026-05-08 18:36 | 44.84653 | 8.87155 | 18059 ft | 442 kts | 30° |
| 2026-05-08 18:36 | 44.88199 | 8.90111 | 18058 ft | 442 kts | 30° |
| 2026-05-08 18:37 | 44.90815 | 8.92294 | 18059 ft | 442 kts | 30° |
| 2026-05-08 18:37 | 44.93494 | 8.94442 | 18061 ft | 442 kts | 26° |
| 2026-05-08 18:37 | 44.96336 | 8.96079 | 18053 ft | 441 kts | 17° |
| 2026-05-08 18:37 | 44.99322 | 8.97087 | 18053 ft | 440 kts | 8° |
| 2026-05-08 18:38 | 45.02372 | 8.97466 | 18084 ft | 439 kts | 2° |
| 2026-05-08 18:38 | 45.05427 | 8.97688 | 18086 ft | 440 kts | 2° |
| 2026-05-08 18:38 | 45.08450 | 8.97910 | 18082 ft | 440 kts | 2° |
| 2026-05-08 18:38 | 45.11509 | 8.98139 | 18083 ft | 440 kts | 2° |
| 2026-05-08 18:39 | 45.14571 | 8.98369 | 18078 ft | 440 kts | 2° |
| 2026-05-08 18:39 | 45.17632 | 8.98602 | 18077 ft | 440 kts | 2° |
| 2026-05-08 18:39 | 45.20691 | 8.98835 | 18072 ft | 440 kts | 2° |
| 2026-05-08 18:39 | 45.23752 | 8.99067 | 18073 ft | 440 kts | 2° |
| 2026-05-08 18:40 | 45.26821 | 8.99297 | 18062 ft | 440 kts | 2° |
| 2026-05-08 18:40 | 45.29884 | 8.99525 | 18049 ft | 440 kts | 2° |
| 2026-05-08 18:40 | 45.32907 | 8.99750 | 18053 ft | 440 kts | 2° |
| 2026-05-08 18:40 | 45.35964 | 8.99980 | 18055 ft | 440 kts | 2° |
| 2026-05-08 18:41 | 45.39051 | 9.00216 | 18054 ft | 440 kts | 2° |
| 2026-05-08 18:41 | 45.42094 | 9.00448 | 18060 ft | 440 kts | 2° |
| 2026-05-08 18:41 | 45.45152 | 9.00683 | 18055 ft | 440 kts | 2° |
| 2026-05-08 18:41 | 45.48221 | 9.00917 | 18055 ft | 441 kts | 2° |
| 2026-05-08 18:42 | 45.51244 | 9.01144 | 18055 ft | 441 kts | 2° |
| 2026-05-08 18:42 | 45.53319 | 9.01301 | 18058 ft | 441 kts | 2° |
| 2026-05-08 18:42 | 45.55334 | 9.01654 | 18046 ft | 442 kts | 12° |
| 2026-05-08 18:42 | 45.60078 | 9.04409 | 18055 ft | 444 kts | 26° |
| 2026-05-08 18:43 | 45.62852 | 9.06356 | 18058 ft | 443 kts | 24° |
| 2026-05-08 18:43 | 45.65660 | 9.08182 | 18050 ft | 444 kts | 26° |
| 2026-05-08 18:43 | 45.68087 | 9.10890 | 18056 ft | 446 kts | 47° |
| 2026-05-08 18:43 | 45.70000 | 9.14324 | 18051 ft | 446 kts | 50° |
| 2026-05-08 18:44 | 45.72264 | 9.17232 | 18061 ft | 445 kts | 31° |
| 2026-05-08 18:44 | 45.75127 | 9.18811 | 18059 ft | 442 kts | 9° |
| 2026-05-08 18:44 | 45.78180 | 9.18773 | 18063 ft | 439 kts | 347° |
| 2026-05-08 18:44 | 45.80981 | 9.17132 | 18081 ft | 436 kts | 326° |
| 2026-05-08 18:45 | 45.83266 | 9.14297 | 18079 ft | 435 kts | 315° |
| 2026-05-08 18:45 | 45.85567 | 9.11558 | 18068 ft | 436 kts | 324° |
| 2026-05-08 18:45 | 45.88252 | 9.09549 | 18065 ft | 438 kts | 338° |
| 2026-05-08 18:45 | 45.91190 | 9.08380 | 18084 ft | 439 kts | 348° |
| 2026-05-08 18:46 | 45.93193 | 9.07944 | 18086 ft | 440 kts | 352° |
| 2026-05-08 18:46 | 45.96244 | 9.07554 | 18074 ft | 440 kts | 354° |
| 2026-05-08 18:46 | 46.00325 | 9.06952 | 18080 ft | 440 kts | 352° |
| 2026-05-08 18:46 | 46.03369 | 9.06430 | 18087 ft | 440 kts | 352° |
| 2026-05-08 18:47 | 46.06407 | 9.05886 | 18080 ft | 440 kts | 352° |
| 2026-05-08 18:47 | 46.09445 | 9.05349 | 18079 ft | 440 kts | 352° |
| 2026-05-08 18:47 | 46.12487 | 9.04828 | 18058 ft | 440 kts | 352° |
| 2026-05-08 18:47 | 46.15484 | 9.04332 | 18057 ft | 440 kts | 352° |
| 2026-05-08 18:48 | 46.18527 | 9.03862 | 18063 ft | 440 kts | 353° |
| 2026-05-08 18:48 | 46.21578 | 9.03443 | 18060 ft | 440 kts | 353° |
| 2026-05-08 18:48 | 46.23640 | 9.03179 | 18060 ft | 440 kts | 354° |
| 2026-05-08 18:48 | 46.27680 | 9.02678 | 18058 ft | 440 kts | 354° |
| 2026-05-08 18:49 | 46.30727 | 9.02297 | 18066 ft | 440 kts | 354° |
| 2026-05-08 18:49 | 46.33785 | 9.01902 | 18070 ft | 440 kts | 353° |
| 2026-05-08 18:49 | 46.35798 | 9.01635 | 18073 ft | 440 kts | 353° |
| 2026-05-08 18:49 | 46.39886 | 9.01087 | 18073 ft | 440 kts | 353° |
| 2026-05-08 18:50 | 46.42935 | 9.00675 | 18080 ft | 440 kts | 353° |
| 2026-05-08 18:50 | 46.45943 | 9.00268 | 18080 ft | 440 kts | 353° |
| 2026-05-08 18:50 | 46.48994 | 8.99856 | 18082 ft | 440 kts | 353° |
| 2026-05-08 18:50 | 46.51024 | 8.99580 | 18081 ft | 440 kts | 353° |
| 2026-05-08 18:51 | 46.54082 | 8.99165 | 18087 ft | 440 kts | 353° |
| 2026-05-08 18:51 | 46.57135 | 8.98752 | 18082 ft | 440 kts | 353° |
| 2026-05-08 18:51 | 46.60183 | 8.98344 | 18083 ft | 440 kts | 353° |
| 2026-05-08 18:51 | 46.63236 | 8.97934 | 18080 ft | 440 kts | 353° |
| 2026-05-08 18:52 | 46.66291 | 8.97518 | 18081 ft | 440 kts | 353° |
| 2026-05-08 18:52 | 46.69341 | 8.97099 | 18085 ft | 440 kts | 353° |
| 2026-05-08 18:52 | 46.72391 | 8.96679 | 18071 ft | 440 kts | 353° |
| 2026-05-08 18:52 | 46.75444 | 8.96260 | 18069 ft | 441 kts | 353° |
| 2026-05-08 18:53 | 46.78499 | 8.95845 | 18071 ft | 441 kts | 353° |
| 2026-05-08 18:53 | 46.81559 | 8.95432 | 18071 ft | 441 kts | 353° |
| 2026-05-08 18:53 | 46.84576 | 8.95025 | 18071 ft | 441 kts | 353° |
| 2026-05-08 18:53 | 46.87634 | 8.94611 | 18058 ft | 441 kts | 353° |
| 2026-05-08 18:54 | 46.90689 | 8.94197 | 18061 ft | 441 kts | 353° |
| 2026-05-08 18:54 | 46.93742 | 8.93780 | 18055 ft | 441 kts | 353° |
| 2026-05-08 18:54 | 46.96802 | 8.93361 | 18052 ft | 441 kts | 353° |
| 2026-05-08 18:54 | 46.99861 | 8.92944 | 18052 ft | 441 kts | 353° |
| 2026-05-08 18:55 | 47.05978 | 8.92103 | 18051 ft | 441 kts | 353° |
| 2026-05-08 18:55 | 47.09040 | 8.91680 | 18046 ft | 441 kts | 353° |
| 2026-05-08 18:55 | 47.12094 | 8.91218 | 18039 ft | 441 kts | 350° |
| 2026-05-08 18:56 | 47.15037 | 8.90266 | 18040 ft | 439 kts | 341° |
| 2026-05-08 18:56 | 47.17880 | 8.88678 | 18035 ft | 437 kts | 333° |
| 2026-05-08 18:56 | 47.20535 | 8.86527 | 18037 ft | 435 kts | 327° |
| 2026-05-08 18:56 | 47.23139 | 8.84252 | 18027 ft | 435 kts | 327° |
| 2026-05-08 18:57 | 47.25739 | 8.81970 | 18029 ft | 435 kts | 327° |
| 2026-05-08 18:57 | 47.28337 | 8.79688 | 18029 ft | 435 kts | 327° |
| 2026-05-08 18:57 | 47.30943 | 8.77400 | 18027 ft | 435 kts | 327° |
| 2026-05-08 18:57 | 47.33541 | 8.75117 | 18028 ft | 435 kts | 327° |
| 2026-05-08 18:58 | 47.36134 | 8.72836 | 17903 ft | 430 kts | 327° |
| 2026-05-08 18:58 | 47.38689 | 8.70590 | 17474 ft | 429 kts | 327° |
| 2026-05-08 18:58 | 47.40383 | 8.69097 | 17206 ft | 429 kts | 327° |
| 2026-05-08 18:58 | 47.43802 | 8.66076 | 16683 ft | 426 kts | 327° |
| 2026-05-08 18:59 | 47.46346 | 8.63827 | 16323 ft | 424 kts | 327° |
| 2026-05-08 18:59 | 47.48843 | 8.61615 | 15954 ft | 422 kts | 327° |
| 2026-05-08 18:59 | 47.51354 | 8.59389 | 15656 ft | 420 kts | 327° |
| 2026-05-08 18:59 | 47.53857 | 8.57163 | 15357 ft | 419 kts | 327° |
| 2026-05-08 19:00 | 47.56353 | 8.54940 | 15058 ft | 417 kts | 327° |
| 2026-05-08 19:00 | 47.58843 | 8.52721 | 14758 ft | 416 kts | 327° |
| 2026-05-08 19:00 | 47.61322 | 8.50513 | 14464 ft | 415 kts | 327° |
| 2026-05-08 19:00 | 47.63793 | 8.48313 | 14173 ft | 413 kts | 327° |
| 2026-05-08 19:01 | 47.66254 | 8.46119 | 13886 ft | 412 kts | 327° |
| 2026-05-08 19:01 | 47.68708 | 8.43927 | 13569 ft | 410 kts | 327° |
| 2026-05-08 19:01 | 47.70309 | 8.42443 | 13348 ft | 408 kts | 323° |
| 2026-05-08 19:01 | 47.71062 | 8.41560 | 13246 ft | 406 kts | 315° |
| 2026-05-08 19:02 | 47.71698 | 8.40580 | 13136 ft | 403 kts | 308° |
| 2026-05-08 19:02 | 47.72699 | 8.30441 | 12302 ft | 387 kts | 245° |
| 2026-05-08 19:02 | 47.71115 | 8.27288 | 11981 ft | 374 kts | 221° |
| 2026-05-08 19:02 | 47.68946 | 8.25383 | 11685 ft | 352 kts | 207° |
| 2026-05-08 19:03 | 47.66796 | 8.23851 | 11385 ft | 332 kts | 207° |
| 2026-05-08 19:03 | 47.64757 | 8.22409 | 11085 ft | 316 kts | 207° |
| 2026-05-08 19:03 | 47.62811 | 8.21041 | 10794 ft | 304 kts | 207° |
| 2026-05-08 19:03 | 47.60952 | 8.19738 | 10503 ft | 294 kts | 207° |
| 2026-05-08 19:04 | 47.59129 | 8.18466 | 10207 ft | 286 kts | 207° |
| 2026-05-08 19:04 | 47.57354 | 8.17229 | 9914 ft | 279 kts | 207° |
| 2026-05-08 19:04 | 47.55616 | 8.16021 | 9601 ft | 273 kts | 206° |
| 2026-05-08 19:04 | 47.53914 | 8.14827 | 9287 ft | 268 kts | 208° |
| 2026-05-08 19:05 | 47.52409 | 8.13238 | 8973 ft | 263 kts | 221° |
| 2026-05-08 19:05 | 47.51092 | 8.11382 | 8659 ft | 260 kts | 226° |
| 2026-05-08 19:05 | 47.49854 | 8.09458 | 8351 ft | 257 kts | 227° |
| 2026-05-08 19:05 | 47.48638 | 8.07536 | 8046 ft | 255 kts | 227° |
| 2026-05-08 19:06 | 47.47440 | 8.05659 | 7744 ft | 253 kts | 226° |
| 2026-05-08 19:06 | 47.46227 | 8.03790 | 7445 ft | 251 kts | 226° |
| 2026-05-08 19:06 | 47.45016 | 8.01948 | 7158 ft | 249 kts | 225° |
| 2026-05-08 19:06 | 47.43819 | 8.00146 | 7023 ft | 243 kts | 225° |
| 2026-05-08 19:07 | 47.42640 | 7.98377 | 7025 ft | 241 kts | 225° |
| 2026-05-08 19:07 | 47.41462 | 7.96614 | 7028 ft | 241 kts | 225° |
| 2026-05-08 19:07 | 47.40281 | 7.94854 | 7027 ft | 241 kts | 225° |
| 2026-05-08 19:07 | 47.39099 | 7.93099 | 7028 ft | 241 kts | 224° |
| 2026-05-08 19:08 | 47.37912 | 7.91342 | 7028 ft | 241 kts | 224° |
| 2026-05-08 19:08 | 47.36728 | 7.89587 | 7028 ft | 241 kts | 224° |
| 2026-05-08 19:08 | 47.35544 | 7.87832 | 7028 ft | 241 kts | 224° |
| 2026-05-08 19:08 | 47.34379 | 7.86108 | 7026 ft | 235 kts | 224° |
| 2026-05-08 19:09 | 47.33255 | 7.84446 | 7031 ft | 224 kts | 224° |
| 2026-05-08 19:09 | 47.32165 | 7.82835 | 7027 ft | 221 kts | 224° |
| 2026-05-08 19:09 | 47.31076 | 7.81222 | 7026 ft | 221 kts | 224° |
| 2026-05-08 19:09 | 47.29989 | 7.79613 | 7022 ft | 221 kts | 224° |
| 2026-05-08 19:10 | 47.29269 | 7.78548 | 7023 ft | 221 kts | 224° |
| 2026-05-08 19:10 | 47.28202 | 7.76014 | 7020 ft | 223 kts | 263° |
| 2026-05-08 19:10 | 47.28562 | 7.73858 | 7025 ft | 224 kts | 306° |
| 2026-05-08 19:10 | 47.29764 | 7.72421 | 7031 ft | 225 kts | 332° |
| 2026-05-08 19:11 | 47.31197 | 7.71476 | 7027 ft | 225 kts | 339° |
| 2026-05-08 19:11 | 47.32679 | 7.70713 | 7029 ft | 225 kts | 345° |
| 2026-05-08 19:11 | 47.34174 | 7.70001 | 7007 ft | 226 kts | 339° |
| 2026-05-08 19:11 | 47.35137 | 7.69408 | 6865 ft | 226 kts | 336° |
| 2026-05-08 19:12 | 47.35621 | 7.69086 | 6767 ft | 226 kts | 335° |
| 2026-05-08 19:12 | 47.36087 | 7.68768 | 6674 ft | 226 kts | 335° |
| 2026-05-08 19:12 | 47.39909 | 7.66128 | 5749 ft | 230 kts | 335° |
| 2026-05-08 19:12 | 47.41363 | 7.65126 | 5381 ft | 231 kts | 335° |
| 2026-05-08 19:13 | 47.42827 | 7.64116 | 5029 ft | 233 kts | 335° |
| 2026-05-08 19:13 | 47.44297 | 7.63100 | 4663 ft | 234 kts | 335° |
| 2026-05-08 19:13 | 47.45760 | 7.62090 | 4303 ft | 230 kts | 335° |
| 2026-05-08 19:13 | 47.47193 | 7.61099 | 3941 ft | 224 kts | 335° |
| 2026-05-08 19:14 | 47.48572 | 7.60145 | 3607 ft | 213 kts | 335° |
| 2026-05-08 19:14 | 47.49872 | 7.59245 | 3325 ft | 199 kts | 335° |
| 2026-05-08 19:14 | 47.51067 | 7.58417 | 3006 ft | 183 kts | 335° |
| 2026-05-08 19:14 | 47.52131 | 7.57680 | 2746 ft | 156 kts | 335° |
| 2026-05-08 19:15 | 47.53051 | 7.57042 | 2519 ft | 135 kts | 335° |
| 2026-05-08 19:15 | 47.53858 | 7.56483 | 2322 ft | 123 kts | 335° |
| 2026-05-08 19:15 | 47.54615 | 7.55958 | 2143 ft | 118 kts | 335° |
| 2026-05-08 19:15 | 47.55350 | 7.55448 | 1969 ft | 116 kts | 335° |
| 2026-05-08 19:16 | 47.56061 | 7.54951 | 1793 ft | 114 kts | 335° |
| 2026-05-08 19:16 | 47.56775 | 7.54452 | 1615 ft | 113 kts | 335° |
| 2026-05-08 19:16 | 47.57477 | 7.53965 | 1434 ft | 110 kts | 335° |
| 2026-05-08 19:16 | 47.58170 | 7.53482 | 1267 ft | 110 kts | 335° |
| 2026-05-08 19:17 | 47.58860 | 7.53007 | 1085 ft | 109 kts | 335° |
| 2026-05-08 19:17 | 47.59548 | 7.52531 | 937 ft | 109 kts | 335° |
| 2026-05-08 19:17 | 47.60210 | 7.52071 | 893 ft | 84 kts | 335° |
| 2026-05-08 19:17 | 47.60492 | 7.51887 | 888 ft | 25 kts | 353° |
| 2026-05-08 19:18 | 47.60562 | 7.52024 | 887 ft | 5 kts | 65° |
| 2026-05-08 19:18 | 47.60563 | 7.52025 | 887 ft | 0 kts | 65° |
| 2026-05-08 19:18 | 47.60569 | 7.52044 | 887 ft | 6 kts | 65° |
| 2026-05-08 19:18 | 47.60564 | 7.52119 | 887 ft | 9 kts | 143° |
| 2026-05-08 19:19 | 47.60485 | 7.52176 | 887 ft | 15 kts | 153° |
| 2026-05-08 19:19 | 47.60380 | 7.52247 | 887 ft | 18 kts | 156° |
| 2026-05-08 19:19 | 47.60267 | 7.52326 | 887 ft | 18 kts | 154° |
| 2026-05-08 19:19 | 47.60189 | 7.52416 | 887 ft | 14 kts | 94° |
| 2026-05-08 19:20 | 47.60141 | 7.52512 | 887 ft | 8 kts | 156° |
| 2026-05-08 19:20 | 47.60123 | 7.52523 | 887 ft | 10 kts | 156° |
| 2026-05-08 19:20 | 47.59976 | 7.52623 | 887 ft | 18 kts | 155° |
| 2026-05-08 19:20 | 47.59873 | 7.52696 | 887 ft | 12 kts | 151° |
| 2026-05-08 19:21 | 47.59877 | 7.52797 | 887 ft | 7 kts | 49° |
| 2026-05-08 19:21 | 47.59879 | 7.52799 | 887 ft | 0 kts | 47° |